createdAt,value
2023-02-09T00:02:18.002Z,-13.25
2023-02-09T00:04:46.621Z,-13.35
2023-02-09T00:07:15.047Z,-13.37
2023-02-09T00:09:45.100Z,-13.37
2023-02-09T00:12:31.847Z,-13.35
2023-02-09T00:15:00.361Z,-13.34
2023-02-09T00:17:28.911Z,-13.38
2023-02-09T00:20:00.279Z,-13.45
2023-02-09T00:22:28.863Z,-13.50
2023-02-09T00:24:57.439Z,-13.52
2023-02-09T00:27:26.061Z,-13.61
2023-02-09T00:29:54.491Z,-13.66
2023-02-09T00:32:22.925Z,-13.74
2023-02-09T00:34:51.400Z,-13.83
2023-02-09T00:37:19.852Z,-13.81
2023-02-09T00:39:48.278Z,-13.80
2023-02-09T00:42:16.814Z,-13.85
2023-02-09T00:44:46.236Z,-13.90
2023-02-09T00:47:14.728Z,-13.91
2023-02-09T00:49:43.201Z,-13.90
2023-02-09T00:52:11.754Z,-13.83
2023-02-09T00:54:40.288Z,-13.84
2023-02-09T00:57:08.800Z,-13.84
2023-02-09T00:59:40.787Z,-13.89
2023-02-09T01:02:10.489Z,-13.91
2023-02-09T01:04:40.586Z,-13.90
2023-02-09T01:07:09.581Z,-13.89
2023-02-09T01:09:38.071Z,-13.83
2023-02-09T01:12:08.713Z,-13.76
2023-02-09T01:14:39.457Z,-13.77
2023-02-09T01:17:08.068Z,-13.80
2023-02-09T01:19:36.805Z,-13.86
2023-02-09T01:22:05.431Z,-14.02
2023-02-09T01:24:34.005Z,-14.19
2023-02-09T01:27:03.437Z,-14.21
2023-02-09T01:29:33.044Z,-14.16
2023-02-09T01:32:01.537Z,-14.16
2023-02-09T01:34:30.258Z,-14.17
2023-02-09T01:36:58.774Z,-14.23
2023-02-09T01:39:27.274Z,-14.23
2023-02-09T01:41:55.744Z,-14.26
2023-02-09T01:44:24.065Z,-14.29
2023-02-09T01:46:53.114Z,-14.39
2023-02-09T01:49:28.170Z,-14.50
2023-02-09T01:52:12.784Z,-14.58
2023-02-09T01:54:52.663Z,-14.58
2023-02-09T01:57:31.641Z,-14.55
2023-02-09T02:00:07.803Z,-14.59
2023-02-09T02:02:52.094Z,-14.66
2023-02-09T02:05:23.190Z,-14.63
2023-02-09T02:08:11.389Z,-14.60
2023-02-09T02:10:39.837Z,-14.70
2023-02-09T02:13:09.039Z,-14.72
2023-02-09T02:15:50.007Z,-14.67
2023-02-09T02:18:45.888Z,-14.61
2023-02-09T02:21:29.309Z,-14.63
2023-02-09T02:24:54.238Z,-14.69
2023-02-09T02:27:47.184Z,-14.73
2023-02-09T02:30:24.476Z,-14.68
2023-02-09T02:33:07.549Z,-14.62
2023-02-09T02:36:27.252Z,-14.66
2023-02-09T02:39:10.191Z,-14.71
2023-02-09T02:41:57.288Z,-14.75
2023-02-09T02:44:29.847Z,-14.85
2023-02-09T02:47:04.778Z,-14.88
2023-02-09T02:49:49.373Z,-14.86
2023-02-09T02:52:18.004Z,-14.84
2023-02-09T02:55:02.956Z,-14.82
2023-02-09T02:57:34.620Z,-14.82
2023-02-09T03:00:19.386Z,-14.84
2023-02-09T03:02:54.968Z,-14.89
2023-02-09T03:05:26.531Z,-14.90
2023-02-09T03:07:54.954Z,-14.92
2023-02-09T03:10:37.305Z,-14.88
2023-02-09T03:13:23.864Z,-14.88
2023-02-09T03:16:26.512Z,-14.88
2023-02-09T03:19:04.268Z,-14.88
2023-02-09T03:22:03.366Z,-14.94
2023-02-09T03:24:53.709Z,-15.05
2023-02-09T03:27:24.949Z,-15.04
2023-02-09T03:29:59.313Z,-15.01
2023-02-09T03:32:28.606Z,-15.00
2023-02-09T03:34:58.065Z,-15.07
2023-02-09T03:37:26.658Z,-15.17
2023-02-09T03:39:55.106Z,-15.22
2023-02-09T03:42:23.575Z,-15.18
2023-02-09T03:44:52.021Z,-15.16
2023-02-09T03:47:20.451Z,-15.16
2023-02-09T03:49:48.892Z,-15.22
2023-02-09T03:52:17.723Z,-15.25
2023-02-09T03:54:46.165Z,-15.26
2023-02-09T03:57:14.672Z,-15.21
2023-02-09T03:59:43.324Z,-15.16
2023-02-09T04:02:11.972Z,-15.20
2023-02-09T04:04:40.548Z,-15.25
2023-02-09T04:07:08.992Z,-15.23
2023-02-09T04:09:37.852Z,-15.28
2023-02-09T04:12:06.630Z,-15.42
2023-02-09T04:14:35.109Z,-15.56
2023-02-09T04:17:03.847Z,-15.60
2023-02-09T04:19:32.294Z,-15.58
2023-02-09T04:22:01.229Z,-15.57
2023-02-09T04:24:29.781Z,-15.61
2023-02-09T04:26:58.253Z,-15.65
2023-02-09T04:29:27.278Z,-15.62
2023-02-09T04:31:56.927Z,-15.57
2023-02-09T04:34:25.397Z,-15.48
2023-02-09T04:36:53.781Z,-15.40
2023-02-09T04:39:22.249Z,-15.38
2023-02-09T04:41:50.683Z,-15.41
2023-02-09T04:44:19.324Z,-15.50
2023-02-09T04:46:47.805Z,-15.53
2023-02-09T04:49:16.315Z,-15.51
2023-02-09T04:51:44.729Z,-15.49
2023-02-09T04:54:13.240Z,-15.46
2023-02-09T04:56:41.678Z,-15.49
2023-02-09T04:59:29.615Z,-15.56
2023-02-09T05:01:58.080Z,-15.58
2023-02-09T05:04:26.511Z,-15.59
2023-02-09T05:06:54.908Z,-15.60
2023-02-09T05:09:23.327Z,-15.65
2023-02-09T05:11:51.782Z,-15.65
2023-02-09T05:14:20.296Z,-15.61
2023-02-09T05:16:48.800Z,-15.57
2023-02-09T05:19:17.245Z,-15.57
2023-02-09T05:21:45.731Z,-15.60
2023-02-09T05:24:14.148Z,-15.62
2023-02-09T05:26:42.591Z,-15.64
2023-02-09T05:29:11.112Z,-15.62
2023-02-09T05:31:39.630Z,-15.58
2023-02-09T05:34:08.195Z,-15.56
2023-02-09T05:36:36.661Z,-15.54
2023-02-09T05:39:05.144Z,-15.46
2023-02-09T05:41:52.418Z,-15.38
2023-02-09T05:44:20.957Z,-15.41
2023-02-09T05:46:49.380Z,-15.40
2023-02-09T05:49:17.956Z,-15.33
2023-02-09T05:51:46.400Z,-15.28
2023-02-09T05:54:14.828Z,-15.14
2023-02-09T05:56:44.265Z,-15.03
2023-02-09T05:59:12.713Z,-14.96
2023-02-09T06:01:41.099Z,-14.90
2023-02-09T06:04:09.823Z,-14.92
2023-02-09T06:06:38.399Z,-14.90
2023-02-09T06:09:07.124Z,-14.83
2023-02-09T06:11:35.836Z,-14.80
2023-02-09T06:14:04.303Z,-14.73
2023-02-09T06:16:33.484Z,-14.59
2023-02-09T06:19:02.184Z,-14.49
2023-02-09T06:21:30.621Z,-14.41
2023-02-09T06:23:59.129Z,-14.36
2023-02-09T06:26:27.506Z,-14.26
2023-02-09T06:28:56.003Z,-14.09
2023-02-09T06:31:24.561Z,-13.91
2023-02-09T06:33:52.998Z,-13.76
2023-02-09T06:36:21.532Z,-13.61
2023-02-09T06:38:50.002Z,-13.44
2023-02-09T06:41:18.548Z,-13.28
2023-02-09T06:43:47.092Z,-13.15
2023-02-09T06:46:15.967Z,-12.95
2023-02-09T06:48:44.532Z,-12.71
2023-02-09T06:51:15.264Z,-12.49
2023-02-09T06:53:44.694Z,-12.32
2023-02-09T06:56:13.924Z,-12.14
2023-02-09T06:58:42.781Z,-11.94
2023-02-09T07:01:15.833Z,-11.80
2023-02-09T07:03:45.158Z,-11.68
2023-02-09T07:06:17.745Z,-11.41
2023-02-09T07:08:46.415Z,-11.19
2023-02-09T07:11:17.418Z,-10.89
2023-02-09T07:13:46.815Z,-10.68
2023-02-09T07:16:15.676Z,-10.65
2023-02-09T07:18:44.257Z,-10.55
2023-02-09T07:21:18.583Z,-10.43
2023-02-09T07:23:48.263Z,-10.25
2023-02-09T07:26:18.768Z,-10.12
2023-02-09T07:28:47.327Z,-10.09
2023-02-09T07:31:16.971Z,-10.04
2023-02-09T07:33:46.177Z,-9.93
2023-02-09T07:36:16.974Z,-9.86
2023-02-09T07:38:45.923Z,-9.77
2023-02-09T07:41:18.958Z,-9.64
2023-02-09T07:43:47.726Z,-9.44
2023-02-09T07:46:18.985Z,-9.27
2023-02-09T07:48:52.487Z,-9.12
2023-02-09T07:51:25.823Z,-8.94
2023-02-09T07:53:56.111Z,-8.67
2023-02-09T07:56:25.654Z,-8.29
2023-02-09T07:58:55.881Z,-7.92
2023-02-09T08:01:26.001Z,-7.56
2023-02-09T08:03:54.459Z,-7.24
2023-02-09T08:06:46.591Z,-6.86
2023-02-09T08:09:16.987Z,-6.64
2023-02-09T08:12:02.971Z,-6.34
2023-02-09T08:14:43.757Z,-6.76
2023-02-09T08:17:20.222Z,-6.76
2023-02-09T08:20:14.661Z,-6.58
2023-02-09T08:22:49.112Z,-6.61
2023-02-09T08:25:21.828Z,-6.54
2023-02-09T08:27:52.157Z,-6.38
2023-02-09T08:30:21.017Z,-6.77
2023-02-09T08:32:49.487Z,-6.35
2023-02-09T08:35:18.338Z,-6.31
2023-02-09T08:37:46.817Z,-6.18
2023-02-09T08:40:15.437Z,-6.08
2023-02-09T08:42:43.909Z,-6.14
2023-02-09T08:45:12.286Z,-5.92
2023-02-09T08:47:40.851Z,-6.29
2023-02-09T08:50:09.984Z,-5.82
2023-02-09T08:52:38.512Z,-5.53
2023-02-09T08:55:07.540Z,-5.41
2023-02-09T08:57:43.903Z,-5.25
2023-02-09T09:00:15.387Z,-5.19
2023-02-09T09:02:43.952Z,-5.32
2023-02-09T09:05:12.475Z,-4.80
2023-02-09T09:07:41.239Z,-5.12
2023-02-09T09:10:10.068Z,-5.52
2023-02-09T09:12:38.589Z,-5.12
2023-02-09T09:15:07.504Z,-4.83
2023-02-09T09:17:35.958Z,-5.25
2023-02-09T09:20:05.372Z,-4.99
2023-02-09T09:22:33.882Z,-4.78
2023-02-09T09:25:03.709Z,-4.74
2023-02-09T09:27:36.251Z,-4.72
2023-02-09T09:30:06.084Z,-4.36
2023-02-09T09:32:34.942Z,-4.35
2023-02-09T09:35:03.698Z,-4.57
2023-02-09T09:37:33.221Z,-4.67
2023-02-09T09:40:01.737Z,-4.35
2023-02-09T09:42:47.069Z,-4.24
2023-02-09T09:45:21.374Z,-4.53
2023-02-09T09:47:50.562Z,-4.37
2023-02-09T09:50:48.346Z,-4.60
2023-02-09T09:53:28.862Z,-4.38
2023-02-09T09:56:01.811Z,-3.94
2023-02-09T09:58:32.478Z,-4.16
2023-02-09T10:01:01.492Z,-3.42
2023-02-09T10:03:29.996Z,-3.48
2023-02-09T10:06:14.132Z,-3.51
2023-02-09T10:08:56.063Z,-4.06
2023-02-09T10:11:34.054Z,-3.68
2023-02-09T10:14:02.503Z,-3.56
2023-02-09T10:16:35.170Z,-2.84
2023-02-09T10:19:19.334Z,-2.41
2023-02-09T10:21:49.237Z,-2.34
2023-02-09T10:24:43.884Z,-1.85
2023-02-09T10:27:29.404Z,-2.29
2023-02-09T10:30:27.265Z,-1.75
2023-02-09T10:32:59.992Z,-1.61
2023-02-09T10:35:41.921Z,-1.37
2023-02-09T10:38:20.583Z,-1.12
2023-02-09T10:40:50.032Z,-0.78
2023-02-09T10:43:32.035Z,-1.33
2023-02-09T10:46:11.117Z,-2.07
2023-02-09T10:48:43.381Z,-1.57
2023-02-09T10:51:29.861Z,-1.85
2023-02-09T10:54:20.598Z,-1.96
2023-02-09T10:56:49.563Z,-1.86
2023-02-09T10:59:24.929Z,-1.52
2023-02-09T11:02:00.803Z,-0.83
2023-02-09T11:04:41.246Z,0.07
2023-02-09T11:07:15.217Z,0.51
2023-02-09T11:09:50.556Z,-0.23
2023-02-09T11:12:22.758Z,-0.59
2023-02-09T11:14:51.752Z,-0.74
2023-02-09T11:17:36.794Z,0.44
2023-02-09T11:20:40.127Z,-0.13
2023-02-09T11:23:55.540Z,-0.14
2023-02-09T11:26:51.195Z,-0.42
2023-02-09T11:29:34.618Z,0.05
2023-02-09T11:32:38.481Z,1.36
2023-02-09T11:35:24.323Z,2.20
2023-02-09T11:38:15.897Z,0.52
2023-02-09T11:40:52.061Z,1.35
2023-02-09T11:43:32.666Z,2.60
2023-02-09T11:46:13.542Z,3.18
2023-02-09T11:48:50.718Z,4.18
2023-02-09T11:51:22.642Z,3.31
2023-02-09T11:54:16.529Z,3.27
2023-02-09T11:56:51.184Z,2.76
2023-02-09T11:59:22.468Z,3.53
2023-02-09T12:02:06.384Z,3.71
2023-02-09T12:04:47.437Z,3.99
2023-02-09T12:07:40.894Z,3.82
2023-02-09T12:10:28.671Z,4.21
2023-02-09T12:13:43.662Z,3.49
2023-02-09T12:16:26.802Z,3.87
2023-02-09T12:18:56.786Z,3.96
2023-02-09T12:21:38.361Z,3.80
2023-02-09T12:24:40.431Z,2.64
2023-02-09T12:27:26.365Z,3.35
2023-02-09T12:29:54.860Z,2.93
2023-02-09T12:32:44.562Z,3.52
2023-02-09T12:35:39.160Z,3.24
2023-02-09T12:38:20.148Z,4.18
2023-02-09T12:41:07.214Z,5.28
2023-02-09T12:43:38.007Z,3.79
2023-02-09T12:46:29.713Z,4.17
2023-02-09T12:49:01.307Z,3.66
2023-02-09T12:51:51.853Z,3.27
2023-02-09T12:54:42.004Z,4.34
2023-02-09T12:57:17.266Z,3.65
2023-02-09T13:00:00.963Z,3.86
2023-02-09T13:02:50.123Z,4.50
2023-02-09T13:05:24.844Z,3.56
2023-02-09T13:08:11.769Z,3.24
2023-02-09T13:10:58.090Z,2.78
2023-02-09T13:13:46.711Z,3.59
2023-02-09T13:16:29.326Z,3.52
2023-02-09T13:19:18.118Z,3.38
2023-02-09T13:22:19.191Z,4.80
2023-02-09T13:25:00.958Z,5.46
2023-02-09T13:27:30.230Z,6.07
2023-02-09T13:29:59.872Z,6.77
2023-02-09T13:32:58.209Z,6.74
2023-02-09T13:35:34.597Z,5.73
2023-02-09T13:38:18.512Z,5.81
2023-02-09T13:40:51.266Z,6.41
2023-02-09T13:43:32.725Z,5.54
2023-02-09T13:46:02.469Z,5.02
2023-02-09T13:48:38.602Z,5.26
2023-02-09T13:51:20.350Z,6.23
2023-02-09T13:54:03.559Z,6.14
2023-02-09T13:56:34.047Z,5.81
2023-02-09T13:59:02.873Z,5.76
2023-02-09T14:01:37.118Z,5.75
2023-02-09T14:04:18.122Z,5.20
2023-02-09T14:07:14.902Z,5.37
2023-02-09T14:09:55.046Z,5.82
2023-02-09T14:12:52.658Z,5.61
2023-02-09T14:16:03.058Z,6.23
2023-02-09T14:18:44.489Z,5.96
2023-02-09T14:21:15.575Z,6.08
2023-02-09T14:23:57.287Z,6.40
2023-02-09T14:26:33.308Z,6.24
2023-02-09T14:29:19.254Z,6.65
2023-02-09T14:31:59.288Z,5.94
2023-02-09T14:34:39.948Z,5.55
2023-02-09T14:37:11.333Z,5.87
2023-02-09T14:40:08.325Z,6.07
2023-02-09T14:42:55.488Z,6.00
2023-02-09T14:45:37.764Z,6.09
2023-02-09T14:48:24.348Z,6.03
2023-02-09T14:51:02.986Z,5.75
2023-02-09T14:53:33.217Z,5.38
2023-02-09T14:56:01.747Z,4.92
2023-02-09T14:58:32.686Z,4.24
2023-02-09T15:01:03.284Z,3.26
2023-02-09T15:03:31.857Z,2.05
2023-02-09T15:06:04.487Z,0.91
2023-02-09T15:08:37.715Z,0.05
2023-02-09T15:11:29.663Z,-0.83
2023-02-09T15:14:04.265Z,-1.58
2023-02-09T15:16:33.159Z,-2.13
2023-02-09T15:19:05.492Z,-2.68
2023-02-09T15:21:34.104Z,-3.17
2023-02-09T15:24:02.500Z,-3.54
2023-02-09T15:26:34.769Z,-3.90
2023-02-09T15:29:13.391Z,-4.20
2023-02-09T15:31:42.120Z,-4.50
2023-02-09T15:34:12.418Z,-4.80
2023-02-09T15:36:41.697Z,-5.08
2023-02-09T15:39:25.405Z,-5.32
2023-02-09T15:42:12.264Z,-5.55
2023-02-09T15:44:59.136Z,-5.83
2023-02-09T15:47:46.053Z,-6.16
2023-02-09T15:50:14.640Z,-6.50
2023-02-09T15:52:43.201Z,-6.71
2023-02-09T15:55:19.629Z,-6.83
2023-02-09T15:57:52.547Z,-6.90
2023-02-09T16:00:29.901Z,-6.97
2023-02-09T16:03:01.711Z,-7.09
2023-02-09T16:05:30.503Z,-7.21
2023-02-09T16:07:59.801Z,-7.29
2023-02-09T16:10:30.333Z,-7.39
2023-02-09T16:12:58.752Z,-7.50
2023-02-09T16:15:27.568Z,-7.58
2023-02-09T16:17:55.973Z,-7.68
2023-02-09T16:20:26.246Z,-7.79
2023-02-09T16:22:57.480Z,-7.86
2023-02-09T16:25:27.693Z,-8.03
2023-02-09T16:27:57.843Z,-8.19
2023-02-09T16:30:30.610Z,-8.26
2023-02-09T16:32:59.065Z,-8.33
2023-02-09T16:35:27.478Z,-8.44
2023-02-09T16:37:56.520Z,-8.58
2023-02-09T16:40:33.442Z,-8.70
2023-02-09T16:43:02.226Z,-8.76
2023-02-09T16:45:35.226Z,-8.76
2023-02-09T16:48:05.164Z,-8.74
2023-02-09T16:50:42.211Z,-8.75
2023-02-09T16:53:39.506Z,-8.75
2023-02-09T16:56:10.398Z,-8.72
2023-02-09T16:58:39.913Z,-8.77
2023-02-09T17:01:21.477Z,-8.83
2023-02-09T17:03:54.642Z,-8.95
2023-02-09T17:06:29.263Z,-9.06
2023-02-09T17:08:58.863Z,-9.17
2023-02-09T17:11:28.528Z,-9.28
2023-02-09T17:13:56.996Z,-9.32
2023-02-09T17:16:33.148Z,-9.28
2023-02-09T17:19:03.661Z,-9.26
2023-02-09T17:21:36.630Z,-9.32
2023-02-09T17:24:12.068Z,-9.38
2023-02-09T17:26:40.877Z,-9.40
2023-02-09T17:29:10.183Z,-9.40
2023-02-09T17:31:52.813Z,-9.40
2023-02-09T17:34:27.775Z,-9.35
2023-02-09T17:36:57.772Z,-9.25
2023-02-09T17:39:26.162Z,-9.15
2023-02-09T17:41:54.626Z,-9.07
2023-02-09T17:44:45.040Z,-9.07
2023-02-09T17:47:20.353Z,-9.07
2023-02-09T17:49:48.781Z,-9.09
2023-02-09T17:52:19.783Z,-9.13
2023-02-09T17:54:49.481Z,-9.17
2023-02-09T17:57:18.284Z,-9.17
2023-02-09T17:59:48.044Z,-9.20
2023-02-09T18:02:19.940Z,-9.30
2023-02-09T18:04:48.734Z,-9.41
2023-02-09T18:07:20.693Z,-9.51
2023-02-09T18:09:49.449Z,-9.66
2023-02-09T18:12:27.237Z,-9.78
2023-02-09T18:14:56.449Z,-9.91
2023-02-09T18:17:24.949Z,-10.05
2023-02-09T18:19:53.352Z,-10.15
2023-02-09T18:22:21.837Z,-10.23
2023-02-09T18:24:50.296Z,-10.22
2023-02-09T18:27:25.784Z,-10.15
2023-02-09T18:29:54.285Z,-10.07
2023-02-09T18:32:24.107Z,-10.06
2023-02-09T18:34:52.574Z,-10.06
2023-02-09T18:37:20.990Z,-10.03
2023-02-09T18:39:49.412Z,-10.02
2023-02-09T18:42:17.791Z,-10.02
2023-02-09T18:44:46.257Z,-10.03
2023-02-09T18:47:14.890Z,-10.03
2023-02-09T18:49:43.516Z,-10.05
2023-02-09T18:52:20.980Z,-10.04
2023-02-09T18:54:49.402Z,-10.02
2023-02-09T18:57:18.015Z,-9.97
2023-02-09T18:59:47.833Z,-9.91
2023-02-09T19:02:16.622Z,-9.86
2023-02-09T19:04:45.078Z,-9.86
2023-02-09T19:07:14.512Z,-9.85
2023-02-09T19:09:46.055Z,-9.90
2023-02-09T19:12:14.605Z,-9.98
2023-02-09T19:14:46.003Z,-10.17
2023-02-09T19:17:21.812Z,-10.27
2023-02-09T19:19:51.067Z,-10.30
2023-02-09T19:22:21.991Z,-10.32
2023-02-09T19:24:53.173Z,-10.37
2023-02-09T19:27:22.056Z,-10.41
2023-02-09T19:29:55.040Z,-10.41
2023-02-09T19:32:24.852Z,-10.38
2023-02-09T19:34:53.403Z,-10.31
2023-02-09T19:37:22.438Z,-10.24
2023-02-09T19:39:53.924Z,-10.17
2023-02-09T19:42:22.905Z,-10.09
2023-02-09T19:44:54.688Z,-10.05
2023-02-09T19:47:26.117Z,-10.05
2023-02-09T19:49:57.997Z,-10.08
2023-02-09T19:52:28.374Z,-10.13
2023-02-09T19:54:57.951Z,-10.21
2023-02-09T19:57:26.655Z,-10.26
2023-02-09T19:59:55.164Z,-10.30
2023-02-09T20:02:23.664Z,-10.35
2023-02-09T20:04:52.382Z,-10.40
2023-02-09T20:07:20.934Z,-10.44
2023-02-09T20:09:52.566Z,-10.45
2023-02-09T20:12:22.192Z,-10.51
2023-02-09T20:14:51.067Z,-10.51
2023-02-09T20:19:52.712Z,-10.47
2023-02-09T20:22:21.888Z,-10.46
2023-02-09T20:24:50.508Z,-10.45
2023-02-09T20:27:19.327Z,-10.40
2023-02-09T20:29:47.815Z,-10.44
2023-02-09T20:32:16.235Z,-10.54
2023-02-09T20:34:44.722Z,-10.69
2023-02-09T20:37:13.114Z,-10.83
2023-02-09T20:39:41.500Z,-10.98
2023-02-09T20:42:28.509Z,-11.08
2023-02-09T20:45:15.637Z,-11.13
2023-02-09T20:47:44.030Z,-11.16
2023-02-09T20:50:13.950Z,-11.18
2023-02-09T20:52:45.822Z,-11.21
2023-02-09T20:55:15.588Z,-11.25
2023-02-09T20:57:44.194Z,-11.31
2023-02-09T21:00:13.300Z,-11.34
2023-02-09T21:02:41.775Z,-11.38
2023-02-09T21:05:10.301Z,-11.43
2023-02-09T21:07:38.990Z,-11.48
2023-02-09T21:10:07.972Z,-11.51
2023-02-09T21:12:36.403Z,-11.54
2023-02-09T21:15:05.245Z,-11.53
2023-02-09T21:17:33.672Z,-11.56
2023-02-09T21:20:02.407Z,-11.57
2023-02-09T21:22:30.876Z,-11.59
2023-02-09T21:24:59.282Z,-11.62
2023-02-09T21:27:27.794Z,-11.66
2023-02-09T21:29:57.243Z,-11.72
2023-02-09T21:32:25.708Z,-11.76
2023-02-09T21:34:54.173Z,-11.79
2023-02-09T21:37:23.005Z,-11.79
2023-02-09T21:39:51.411Z,-11.79
2023-02-09T21:42:29.796Z,-11.76
2023-02-09T21:44:59.771Z,-11.77
2023-02-09T21:47:34.716Z,-11.79
2023-02-09T21:50:05.766Z,-11.78
2023-02-09T21:52:34.759Z,-11.88
2023-02-09T21:55:04.930Z,-12.00
2023-02-09T21:57:33.929Z,-12.10
2023-02-09T22:00:05.662Z,-12.14
2023-02-09T22:02:34.106Z,-12.16
2023-02-09T22:05:03.127Z,-12.19
2023-02-09T22:07:31.655Z,-12.20
2023-02-09T22:10:02.127Z,-12.19
2023-02-09T22:12:30.612Z,-12.17
2023-02-09T22:14:59.031Z,-12.24
2023-02-09T22:17:27.537Z,-12.31
2023-02-09T22:19:55.964Z,-12.35
2023-02-09T22:22:24.448Z,-12.39
2023-02-09T22:24:52.828Z,-12.43
2023-02-09T22:27:21.280Z,-12.46
2023-02-09T22:29:49.782Z,-12.46
2023-02-09T22:32:19.093Z,-12.44
2023-02-09T22:34:47.514Z,-12.37
2023-02-09T22:37:15.883Z,-12.31
2023-02-09T22:39:45.132Z,-12.30
2023-02-09T22:42:13.714Z,-12.29
2023-02-09T22:44:42.184Z,-12.27
2023-02-09T22:47:10.633Z,-12.31
2023-02-09T22:49:39.186Z,-12.31
2023-02-09T22:52:07.677Z,-12.26
2023-02-09T22:54:36.402Z,-12.17
2023-02-09T22:57:04.968Z,-12.11
2023-02-09T22:59:33.414Z,-12.01
2023-02-09T23:02:02.869Z,-11.93
2023-02-09T23:04:32.977Z,-11.93
2023-02-09T23:07:02.206Z,-11.98
2023-02-09T23:09:31.642Z,-12.07
2023-02-09T23:12:00.117Z,-12.14
2023-02-09T23:14:28.797Z,-12.16
2023-02-09T23:16:57.226Z,-12.19
2023-02-09T23:19:25.823Z,-12.21
2023-02-09T23:21:54.230Z,-12.24
2023-02-09T23:24:24.658Z,-12.28
2023-02-09T23:26:53.345Z,-12.27
2023-02-09T23:29:22.081Z,-12.28
2023-02-09T23:31:50.669Z,-12.27
2023-02-09T23:34:22.678Z,-12.28
2023-02-09T23:36:51.446Z,-12.32
2023-02-09T23:39:26.946Z,-12.30
2023-02-09T23:41:55.410Z,-12.26
2023-02-09T23:44:23.993Z,-12.27
2023-02-09T23:46:52.390Z,-12.29
2023-02-09T23:49:22.823Z,-12.26
2023-02-09T23:51:51.491Z,-12.27
2023-02-09T23:54:20.063Z,-12.28
2023-02-09T23:56:50.392Z,-12.28
2023-02-09T23:59:18.771Z,-12.28
